createdAt,value
2022-08-19T00:00:15.631Z,100.00
2022-08-19T00:02:50.210Z,100.00
2022-08-19T00:05:20.887Z,100.00
2022-08-19T00:07:50.910Z,100.00
2022-08-19T00:10:21.599Z,100.00
2022-08-19T00:12:49.941Z,100.00
2022-08-19T00:15:21.032Z,100.00
2022-08-19T00:17:49.579Z,100.00
2022-08-19T00:20:22.942Z,100.00
2022-08-19T00:22:51.469Z,100.00
2022-08-19T00:25:30.058Z,100.00
2022-08-19T00:27:59.953Z,100.00
2022-08-19T00:30:29.154Z,100.00
2022-08-19T00:32:58.944Z,100.00
2022-08-19T00:35:28.338Z,100.00
2022-08-19T00:37:57.132Z,100.00
2022-08-19T00:40:26.064Z,100.00
2022-08-19T00:42:54.951Z,100.00
2022-08-19T00:45:27.404Z,100.00
2022-08-19T00:47:55.695Z,100.00
2022-08-19T00:50:25.389Z,100.00
2022-08-19T00:52:54.524Z,100.00
2022-08-19T00:55:29.814Z,100.00
2022-08-19T00:58:02.458Z,100.00
2022-08-19T01:00:37.581Z,100.00
2022-08-19T01:03:11.238Z,100.00
2022-08-19T01:05:43.331Z,100.00
2022-08-19T01:08:13.284Z,100.00
2022-08-19T01:10:45.914Z,100.00
2022-08-19T01:13:21.758Z,100.00
2022-08-19T01:15:55.638Z,100.00
2022-08-19T01:18:26.016Z,100.00
2022-08-19T01:20:58.985Z,100.00
2022-08-19T01:23:43.606Z,100.00
2022-08-19T01:26:23.785Z,100.00
2022-08-19T01:28:59.603Z,100.00
2022-08-19T01:31:33.498Z,100.00
2022-08-19T01:34:02.998Z,100.00
2022-08-19T01:36:42.728Z,100.00
2022-08-19T01:39:17.254Z,100.00
2022-08-19T01:41:46.035Z,100.00
2022-08-19T01:44:18.834Z,100.00
2022-08-19T01:46:49.435Z,100.00
2022-08-19T01:49:20.382Z,100.00
2022-08-19T01:51:50.673Z,100.00
2022-08-19T01:54:27.012Z,100.00
2022-08-19T01:57:08.470Z,100.00
2022-08-19T01:59:37.649Z,100.00
2022-08-19T02:02:08.216Z,100.00
2022-08-19T02:04:39.075Z,100.00
2022-08-19T02:07:09.210Z,100.00
2022-08-19T02:09:38.072Z,100.00
2022-08-19T02:12:11.592Z,100.00
2022-08-19T02:14:40.025Z,100.00
2022-08-19T02:17:08.599Z,100.00
2022-08-19T02:19:39.490Z,100.00
2022-08-19T02:22:09.566Z,100.00
2022-08-19T02:24:37.932Z,100.00
2022-08-19T02:27:09.493Z,100.00
2022-08-19T02:29:38.002Z,100.00
2022-08-19T02:32:06.557Z,100.00
2022-08-19T02:34:35.614Z,100.00
2022-08-19T02:37:04.114Z,100.00
2022-08-19T02:39:33.058Z,100.00
2022-08-19T02:42:03.136Z,100.00
2022-08-19T02:44:34.678Z,100.00
2022-08-19T02:47:04.349Z,100.00
2022-08-19T02:49:34.557Z,100.00
2022-08-19T02:52:04.940Z,100.00
2022-08-19T02:54:33.775Z,100.00
2022-08-19T02:57:02.310Z,100.00
2022-08-19T02:59:32.082Z,100.00
2022-08-19T03:02:00.863Z,100.00
2022-08-19T03:04:30.667Z,100.00
2022-08-19T03:07:09.303Z,100.00
2022-08-19T03:09:39.698Z,100.00
2022-08-19T03:12:08.196Z,100.00
2022-08-19T03:14:37.670Z,100.00
2022-08-19T03:17:06.496Z,100.00
2022-08-19T03:19:34.834Z,100.00
2022-08-19T03:22:05.270Z,100.00
2022-08-19T03:24:33.659Z,100.00
2022-08-19T03:27:03.670Z,100.00
2022-08-19T03:29:32.861Z,100.00
2022-08-19T03:32:05.123Z,100.00
2022-08-19T03:34:35.721Z,100.00
2022-08-19T03:37:08.153Z,100.00
2022-08-19T03:39:39.037Z,100.00
2022-08-19T03:42:32.362Z,100.00
2022-08-19T03:44:56.125Z,100.00
2022-08-19T03:47:24.417Z,100.00
2022-08-19T03:49:52.759Z,100.00
2022-08-19T03:52:21.194Z,100.00
2022-08-19T03:54:49.526Z,100.00
2022-08-19T03:57:18.272Z,100.00
2022-08-19T03:59:46.741Z,100.00
2022-08-19T04:02:15.401Z,100.00
2022-08-19T04:04:44.819Z,100.00
2022-08-19T04:07:17.129Z,100.00
2022-08-19T04:09:45.610Z,100.00
2022-08-19T04:12:14.050Z,100.00
2022-08-19T04:14:42.419Z,100.00
2022-08-19T04:17:14.003Z,100.00
2022-08-19T04:19:43.958Z,100.00
2022-08-19T04:22:13.612Z,100.00
2022-08-19T04:24:41.969Z,100.00
2022-08-19T04:27:10.447Z,100.00
2022-08-19T04:29:40.476Z,100.00
2022-08-19T04:32:09.947Z,100.00
2022-08-19T04:35:02.482Z,100.00
2022-08-19T04:37:34.887Z,100.00
2022-08-19T04:40:25.839Z,100.00
2022-08-19T04:42:55.463Z,100.00
2022-08-19T04:45:24.096Z,100.00
2022-08-19T04:47:58.688Z,100.00
2022-08-19T04:50:46.001Z,100.00
2022-08-19T04:53:14.521Z,100.00
2022-08-19T04:55:45.499Z,100.00
2022-08-19T04:58:14.129Z,100.00
2022-08-19T05:00:49.143Z,100.00
2022-08-19T05:03:18.459Z,100.00
2022-08-19T05:05:50.160Z,100.00
2022-08-19T05:08:30.738Z,100.00
2022-08-19T05:11:00.111Z,100.00
2022-08-19T05:13:28.712Z,100.00
2022-08-19T05:15:59.002Z,100.00
2022-08-19T05:18:51.325Z,100.00
2022-08-19T05:21:39.313Z,100.00
2022-08-19T05:24:10.414Z,100.00
2022-08-19T05:26:41.023Z,100.00
2022-08-19T05:29:11.315Z,100.00
2022-08-19T05:31:41.797Z,100.00
2022-08-19T05:34:18.556Z,100.00
2022-08-19T05:36:50.818Z,100.00
2022-08-19T05:39:22.069Z,100.00
2022-08-19T05:41:54.281Z,100.00
2022-08-19T05:44:23.137Z,100.00
2022-08-19T05:46:54.143Z,100.00
2022-08-19T05:49:24.262Z,100.00
2022-08-19T05:51:52.810Z,100.00
2022-08-19T05:54:24.103Z,100.00
2022-08-19T05:56:54.273Z,100.00
2022-08-19T05:59:24.927Z,100.00
2022-08-19T06:01:55.347Z,100.00
2022-08-19T06:04:24.363Z,100.00
2022-08-19T06:06:54.790Z,100.00
2022-08-19T06:09:25.795Z,100.00
2022-08-19T06:12:00.870Z,100.00
2022-08-19T06:14:35.567Z,100.00
2022-08-19T06:17:10.033Z,100.00
2022-08-19T06:19:40.928Z,100.00
2022-08-19T06:22:12.888Z,100.00
2022-08-19T06:24:41.314Z,100.00
2022-08-19T06:27:10.001Z,100.00
2022-08-19T06:29:38.886Z,100.00
2022-08-19T06:32:07.338Z,100.00
2022-08-19T06:34:36.225Z,100.00
2022-08-19T06:37:06.830Z,100.00
2022-08-19T06:39:37.852Z,100.00
2022-08-19T06:42:10.314Z,100.00
2022-08-19T06:44:42.839Z,100.00
2022-08-19T06:47:23.572Z,100.00
2022-08-19T06:50:03.866Z,100.00
2022-08-19T06:52:36.694Z,100.00
2022-08-19T06:55:06.780Z,100.00
2022-08-19T06:57:35.467Z,100.00
2022-08-19T07:00:12.242Z,100.00
2022-08-19T07:02:46.299Z,100.00
2022-08-19T07:05:19.306Z,100.00
2022-08-19T07:07:49.350Z,100.00
2022-08-19T07:10:20.450Z,100.00
2022-08-19T07:12:51.049Z,100.00
2022-08-19T07:15:22.382Z,100.00
2022-08-19T07:17:52.927Z,100.00
2022-08-19T07:20:21.882Z,100.00
2022-08-19T07:22:57.088Z,100.00
2022-08-19T07:25:32.207Z,100.00
2022-08-19T07:28:02.534Z,100.00
2022-08-19T07:30:31.776Z,100.00
2022-08-19T07:33:06.535Z,100.00
2022-08-19T07:35:34.934Z,100.00
2022-08-19T07:38:05.668Z,100.00
2022-08-19T07:40:35.135Z,100.00
2022-08-19T07:43:03.643Z,100.00
2022-08-19T07:45:33.509Z,100.00
2022-08-19T07:48:02.239Z,100.00
2022-08-19T07:50:30.909Z,100.00
2022-08-19T07:53:01.237Z,100.00
2022-08-19T07:55:41.495Z,100.00
2022-08-19T07:58:18.914Z,100.00
2022-08-19T08:00:49.756Z,100.00
2022-08-19T08:03:43.256Z,100.00
2022-08-19T08:06:30.754Z,100.00
2022-08-19T08:09:18.215Z,100.00
2022-08-19T08:11:51.163Z,100.00
2022-08-19T08:14:29.576Z,100.00
2022-08-19T08:17:10.661Z,100.00
2022-08-19T08:19:42.068Z,100.00
2022-08-19T08:22:34.653Z,100.00
2022-08-19T08:25:09.575Z,100.00
2022-08-19T08:27:40.569Z,100.00
2022-08-19T08:30:11.684Z,100.00
2022-08-19T08:32:40.853Z,100.00
2022-08-19T08:35:13.345Z,100.00
2022-08-19T08:37:41.835Z,100.00
2022-08-19T08:40:36.814Z,100.00
2022-08-19T08:43:38.879Z,100.00
2022-08-19T08:46:31.702Z,100.00
2022-08-19T08:49:23.063Z,100.00
2022-08-19T08:52:32.036Z,100.00
2022-08-19T08:55:20.482Z,100.00
2022-08-19T08:57:51.321Z,100.00
2022-08-19T09:00:23.760Z,100.00
2022-08-19T09:02:52.945Z,100.00
2022-08-19T09:05:26.900Z,100.00
2022-08-19T09:08:36.856Z,100.00
2022-08-19T09:11:09.654Z,100.00
2022-08-19T09:14:40.779Z,100.00
2022-08-19T09:17:09.027Z,100.00
2022-08-19T09:20:09.165Z,100.00
2022-08-19T09:22:39.330Z,100.00
2022-08-19T09:25:09.716Z,100.00
2022-08-19T09:27:42.868Z,100.00
2022-08-19T09:30:19.398Z,100.00
2022-08-19T09:32:47.785Z,100.00
2022-08-19T09:35:23.925Z,100.00
2022-08-19T09:37:57.747Z,100.00
2022-08-19T09:40:30.229Z,100.00
2022-08-19T09:43:01.647Z,100.00
2022-08-19T09:45:30.682Z,100.00
2022-08-19T09:47:59.287Z,100.00
2022-08-19T09:50:51.707Z,100.00
2022-08-19T09:53:23.397Z,100.00
2022-08-19T09:55:58.654Z,100.00
2022-08-19T09:58:28.778Z,100.00
2022-08-19T10:00:59.772Z,100.00
2022-08-19T10:03:31.781Z,100.00
2022-08-19T10:06:05.677Z,100.00
2022-08-19T10:08:49.952Z,100.00
2022-08-19T10:11:27.371Z,100.00
2022-08-19T10:13:57.490Z,100.00
2022-08-19T10:16:30.483Z,100.00
2022-08-19T10:18:59.846Z,100.00
2022-08-19T10:21:35.593Z,100.00
2022-08-19T10:24:06.438Z,100.00
2022-08-19T10:26:39.276Z,100.00
2022-08-19T10:29:09.467Z,100.00
2022-08-19T10:31:59.942Z,99.97
2022-08-19T10:34:31.342Z,99.63
2022-08-19T10:37:01.886Z,99.82
2022-08-19T10:39:32.977Z,99.42
2022-08-19T10:42:12.682Z,99.19
2022-08-19T10:44:41.725Z,98.82
2022-08-19T10:47:17.704Z,96.39
2022-08-19T10:50:13.694Z,95.95
2022-08-19T10:52:50.850Z,95.43
2022-08-19T10:55:41.861Z,93.19
2022-08-19T10:58:23.127Z,92.20
2022-08-19T11:00:57.905Z,90.74
2022-08-19T11:03:28.906Z,89.33
2022-08-19T11:06:07.024Z,88.16
2022-08-19T11:08:38.521Z,88.61
2022-08-19T11:11:08.010Z,88.90
2022-08-19T11:13:38.723Z,88.49
2022-08-19T11:16:09.028Z,89.20
2022-08-19T11:18:43.828Z,88.67
2022-08-19T11:21:22.889Z,88.58
2022-08-19T11:23:54.639Z,89.94
2022-08-19T11:26:25.154Z,90.07
2022-08-19T11:28:57.039Z,91.15
2022-08-19T11:31:29.085Z,89.60
2022-08-19T11:34:05.034Z,89.94
2022-08-19T11:36:34.991Z,89.08
2022-08-19T11:39:05.803Z,88.80
2022-08-19T11:41:34.855Z,88.01
2022-08-19T11:44:05.465Z,87.98
2022-08-19T11:46:33.847Z,84.77
2022-08-19T11:49:03.915Z,84.03
2022-08-19T11:51:33.407Z,83.30
2022-08-19T11:54:02.602Z,83.49
2022-08-19T11:56:30.937Z,84.45
2022-08-19T11:58:59.709Z,82.33
2022-08-19T12:01:28.235Z,82.52
2022-08-19T12:03:59.153Z,83.06
2022-08-19T12:06:34.978Z,83.92
2022-08-19T12:09:16.568Z,83.55
2022-08-19T12:11:45.058Z,83.42
2022-08-19T12:14:15.349Z,84.74
2022-08-19T12:16:49.187Z,84.09
2022-08-19T12:19:22.372Z,83.37
2022-08-19T12:21:52.311Z,83.68
2022-08-19T12:24:24.161Z,83.51
2022-08-19T12:26:53.960Z,84.18
2022-08-19T12:29:25.093Z,83.95
2022-08-19T12:31:53.894Z,85.59
2022-08-19T12:34:22.331Z,85.36
2022-08-19T12:36:50.781Z,86.96
2022-08-19T12:39:19.241Z,85.35
2022-08-19T12:41:51.377Z,87.89
2022-08-19T12:44:29.508Z,89.09
2022-08-19T12:47:00.926Z,88.68
2022-08-19T12:49:54.204Z,89.91
2022-08-19T12:52:25.668Z,90.77
2022-08-19T12:54:56.264Z,91.96
2022-08-19T12:57:31.886Z,92.15
2022-08-19T13:00:06.678Z,92.80
2022-08-19T13:02:38.343Z,92.83
2022-08-19T13:05:10.892Z,92.91
2022-08-19T13:07:41.085Z,92.36
2022-08-19T13:10:13.479Z,93.37
2022-08-19T13:12:43.069Z,92.92
2022-08-19T13:15:12.721Z,94.14
2022-08-19T13:17:43.495Z,95.67
2022-08-19T13:20:12.418Z,98.01
2022-08-19T13:22:40.897Z,97.82
2022-08-19T13:25:09.900Z,99.18
2022-08-19T13:27:40.906Z,98.47
2022-08-19T13:30:30.317Z,98.15
2022-08-19T13:33:16.093Z,97.59
2022-08-19T13:35:51.503Z,96.97
2022-08-19T13:38:22.414Z,96.69
2022-08-19T13:40:53.483Z,96.20
2022-08-19T13:43:24.425Z,96.19
2022-08-19T13:45:57.635Z,97.21
2022-08-19T13:48:28.836Z,95.34
2022-08-19T13:50:57.269Z,96.25
2022-08-19T13:53:25.874Z,96.40
2022-08-19T13:55:55.078Z,96.67
2022-08-19T13:58:23.847Z,98.28
2022-08-19T14:00:52.430Z,100.00
2022-08-19T14:03:20.760Z,100.00
2022-08-19T14:05:49.335Z,100.00
2022-08-19T14:08:18.306Z,100.00
2022-08-19T14:10:49.388Z,100.00
2022-08-19T14:13:21.554Z,100.00
2022-08-19T14:15:50.490Z,100.00
2022-08-19T14:18:29.481Z,100.00
2022-08-19T14:21:01.554Z,100.00
2022-08-19T14:23:30.387Z,100.00
2022-08-19T14:26:10.489Z,100.00
2022-08-19T14:28:42.409Z,100.00
2022-08-19T14:31:20.066Z,100.00
2022-08-19T14:33:49.082Z,100.00
2022-08-19T14:36:21.236Z,100.00
2022-08-19T14:38:49.935Z,100.00
2022-08-19T14:41:23.180Z,100.00
2022-08-19T14:43:53.519Z,100.00
2022-08-19T14:46:26.231Z,100.00
2022-08-19T14:48:56.919Z,100.00
2022-08-19T14:51:27.809Z,100.00
2022-08-19T14:53:56.440Z,100.00
2022-08-19T14:56:28.448Z,100.00
2022-08-19T14:59:02.048Z,100.00
2022-08-19T15:01:30.786Z,100.00
2022-08-19T15:04:00.037Z,100.00
2022-08-19T15:06:29.335Z,100.00
2022-08-19T15:09:00.723Z,100.00
2022-08-19T15:11:33.763Z,100.00
2022-08-19T15:14:02.725Z,100.00
2022-08-19T15:16:31.110Z,100.00
2022-08-19T15:19:00.845Z,100.00
2022-08-19T15:21:31.255Z,100.00
2022-08-19T15:24:01.760Z,100.00
2022-08-19T15:26:33.279Z,100.00
2022-08-19T15:29:12.869Z,100.00
2022-08-19T15:31:41.412Z,100.00
2022-08-19T15:34:14.170Z,100.00
2022-08-19T15:36:42.567Z,100.00
2022-08-19T15:39:11.057Z,100.00
2022-08-19T15:41:41.069Z,100.00
2022-08-19T15:44:13.364Z,100.00
2022-08-19T15:46:46.862Z,100.00
2022-08-19T15:49:18.764Z,100.00
2022-08-19T15:51:49.558Z,100.00
2022-08-19T15:54:21.684Z,100.00
2022-08-19T15:57:10.688Z,100.00
2022-08-19T16:00:02.501Z,100.00
2022-08-19T16:02:53.757Z,100.00
2022-08-19T16:05:45.253Z,100.00
2022-08-19T16:08:13.686Z,100.00
2022-08-19T16:10:42.114Z,100.00
2022-08-19T16:13:12.169Z,100.00
2022-08-19T16:15:43.381Z,100.00
2022-08-19T16:18:13.037Z,100.00
2022-08-19T16:20:41.500Z,100.00
2022-08-19T16:23:10.602Z,100.00
2022-08-19T16:25:39.649Z,100.00
2022-08-19T16:28:11.235Z,100.00
2022-08-19T16:30:42.895Z,100.00
2022-08-19T16:33:19.946Z,100.00
2022-08-19T16:35:56.100Z,100.00
2022-08-19T16:38:29.045Z,100.00
2022-08-19T16:41:01.610Z,100.00
2022-08-19T16:43:31.326Z,100.00
2022-08-19T16:46:00.837Z,100.00
2022-08-19T16:48:30.707Z,100.00
2022-08-19T16:51:01.577Z,100.00
2022-08-19T16:53:32.070Z,100.00
2022-08-19T16:56:03.954Z,100.00
2022-08-19T16:58:34.174Z,100.00
2022-08-19T17:01:07.175Z,100.00
2022-08-19T17:03:37.540Z,100.00
2022-08-19T17:06:20.999Z,100.00
2022-08-19T17:08:52.307Z,100.00
2022-08-19T17:11:22.627Z,100.00
2022-08-19T17:13:51.116Z,100.00
2022-08-19T17:16:26.439Z,100.00
2022-08-19T17:18:57.057Z,100.00
2022-08-19T17:21:31.100Z,100.00
2022-08-19T17:24:02.148Z,100.00
2022-08-19T17:26:31.341Z,100.00
2022-08-19T17:29:02.428Z,100.00
2022-08-19T17:31:31.780Z,100.00
2022-08-19T17:34:01.094Z,100.00
2022-08-19T17:36:33.468Z,100.00
2022-08-19T17:39:04.318Z,100.00
2022-08-19T17:41:34.248Z,100.00
2022-08-19T17:44:04.099Z,100.00
2022-08-19T17:46:34.188Z,100.00
2022-08-19T17:49:06.884Z,100.00
2022-08-19T17:51:36.001Z,100.00
2022-08-19T17:54:06.532Z,100.00
2022-08-19T17:56:34.785Z,100.00
2022-08-19T17:59:03.220Z,100.00
2022-08-19T18:01:51.998Z,100.00
2022-08-19T18:04:25.223Z,100.00
2022-08-19T18:06:55.594Z,100.00
2022-08-19T18:09:38.711Z,100.00
2022-08-19T18:12:14.007Z,100.00
2022-08-19T18:14:42.800Z,100.00
2022-08-19T18:17:14.219Z,100.00
2022-08-19T18:19:44.185Z,100.00
2022-08-19T18:22:22.705Z,100.00
2022-08-19T18:24:51.745Z,100.00
2022-08-19T18:27:20.204Z,100.00
2022-08-19T18:29:48.735Z,100.00
2022-08-19T18:32:21.245Z,100.00
2022-08-19T18:34:54.774Z,100.00
2022-08-19T18:37:25.890Z,100.00
2022-08-19T18:40:13.080Z,100.00
2022-08-19T18:43:04.197Z,100.00
2022-08-19T18:45:51.321Z,100.00
2022-08-19T18:48:38.601Z,100.00
2022-08-19T18:51:07.409Z,100.00
2022-08-19T18:53:40.909Z,100.00
2022-08-19T18:56:15.374Z,100.00
2022-08-19T18:58:44.393Z,100.00
2022-08-19T19:01:16.808Z,100.00
2022-08-19T19:03:49.644Z,100.00
2022-08-19T19:06:22.430Z,100.00
2022-08-19T19:08:53.209Z,100.00
2022-08-19T19:11:27.767Z,100.00
2022-08-19T19:13:56.261Z,100.00
2022-08-19T19:16:24.990Z,100.00
2022-08-19T19:18:53.441Z,100.00
2022-08-19T19:21:23.754Z,100.00
2022-08-19T19:23:54.455Z,100.00
2022-08-19T19:26:23.393Z,100.00
2022-08-19T19:28:51.732Z,100.00
2022-08-19T19:31:26.717Z,100.00
2022-08-19T19:33:56.686Z,100.00
2022-08-19T19:36:26.091Z,100.00
2022-08-19T19:38:54.584Z,100.00
2022-08-19T19:41:24.732Z,100.00
2022-08-19T19:44:16.408Z,100.00
2022-08-19T19:46:45.220Z,100.00
2022-08-19T19:49:14.246Z,100.00
2022-08-19T19:51:43.452Z,100.00
2022-08-19T19:54:19.550Z,100.00
2022-08-19T19:56:50.475Z,100.00
2022-08-19T19:59:18.990Z,100.00
2022-08-19T20:01:47.489Z,100.00
2022-08-19T20:04:19.534Z,100.00
2022-08-19T20:06:48.426Z,100.00
2022-08-19T20:09:19.865Z,100.00
2022-08-19T20:11:53.425Z,100.00
2022-08-19T20:14:30.554Z,100.00
2022-08-19T20:16:59.944Z,100.00
2022-08-19T20:19:37.231Z,100.00
2022-08-19T20:22:06.568Z,100.00
2022-08-19T20:24:36.515Z,100.00
2022-08-19T20:27:05.779Z,100.00
2022-08-19T20:29:38.127Z,100.00
2022-08-19T20:32:10.031Z,100.00
2022-08-19T20:34:41.650Z,100.00
2022-08-19T20:37:10.184Z,100.00
2022-08-19T20:39:38.630Z,100.00
2022-08-19T20:42:07.222Z,100.00
2022-08-19T20:44:35.899Z,100.00
2022-08-19T20:47:06.797Z,100.00
2022-08-19T20:49:35.953Z,100.00
2022-08-19T20:52:05.781Z,100.00
2022-08-19T20:54:40.512Z,100.00
2022-08-19T20:57:11.081Z,100.00
2022-08-19T20:59:39.445Z,100.00
2022-08-19T21:02:08.117Z,100.00
2022-08-19T21:04:36.583Z,100.00
2022-08-19T21:07:07.896Z,100.00
2022-08-19T21:09:37.873Z,100.00
2022-08-19T21:12:08.642Z,100.00
2022-08-19T21:14:42.255Z,100.00
2022-08-19T21:17:10.813Z,100.00
2022-08-19T21:19:39.263Z,100.00
2022-08-19T21:22:08.970Z,100.00
2022-08-19T21:24:38.212Z,100.00
2022-08-19T21:27:07.363Z,100.00
2022-08-19T21:29:37.626Z,100.00
2022-08-19T21:32:06.948Z,100.00
2022-08-19T21:34:37.520Z,100.00
2022-08-19T21:37:06.036Z,100.00
2022-08-19T21:39:40.611Z,100.00
2022-08-19T21:42:12.009Z,100.00
2022-08-19T21:44:48.473Z,100.00
2022-08-19T21:47:16.929Z,100.00
2022-08-19T21:49:45.464Z,100.00
2022-08-19T21:52:14.155Z,100.00
2022-08-19T21:54:43.733Z,100.00
2022-08-19T21:57:12.434Z,100.00
2022-08-19T21:59:43.703Z,100.00
2022-08-19T22:02:21.547Z,100.00
2022-08-19T22:04:52.771Z,100.00
2022-08-19T22:07:22.238Z,100.00
2022-08-19T22:09:51.767Z,100.00
2022-08-19T22:12:32.894Z,100.00
2022-08-19T22:15:02.237Z,100.00
2022-08-19T22:17:33.286Z,100.00
2022-08-19T22:20:04.311Z,100.00
2022-08-19T22:22:35.066Z,100.00
2022-08-19T22:25:12.642Z,100.00
2022-08-19T22:28:00.560Z,100.00
2022-08-19T22:30:33.781Z,100.00
2022-08-19T22:33:06.659Z,100.00
2022-08-19T22:35:38.210Z,100.00
2022-08-19T22:38:08.716Z,100.00
2022-08-19T22:40:39.557Z,100.00
2022-08-19T22:43:14.991Z,100.00
2022-08-19T22:45:44.771Z,100.00
2022-08-19T22:48:15.519Z,100.00
2022-08-19T22:51:05.346Z,100.00
2022-08-19T22:53:41.347Z,100.00
2022-08-19T22:56:15.325Z,100.00
2022-08-19T22:58:46.989Z,100.00
2022-08-19T23:01:27.096Z,100.00
2022-08-19T23:03:59.639Z,100.00
2022-08-19T23:06:33.532Z,100.00
2022-08-19T23:09:07.251Z,100.00
2022-08-19T23:11:42.219Z,100.00
2022-08-19T23:14:12.652Z,100.00
2022-08-19T23:16:42.212Z,100.00
2022-08-19T23:19:11.416Z,100.00
2022-08-19T23:21:41.965Z,100.00
2022-08-19T23:24:10.698Z,100.00
2022-08-19T23:26:59.628Z,100.00
2022-08-19T23:29:48.510Z,100.00
2022-08-19T23:32:18.386Z,100.00
2022-08-19T23:34:46.993Z,100.00
2022-08-19T23:37:15.945Z,100.00
2022-08-19T23:39:44.627Z,100.00
2022-08-19T23:42:13.703Z,100.00
2022-08-19T23:44:52.366Z,100.00
2022-08-19T23:47:21.682Z,100.00
2022-08-19T23:49:50.725Z,100.00
2022-08-19T23:52:20.212Z,100.00
2022-08-19T23:54:48.557Z,100.00
2022-08-19T23:57:16.897Z,100.00
2022-08-19T23:59:45.748Z,100.00
